createdAt,value
2023-05-22T00:00:23.474Z,23.90
2023-05-22T00:02:52.631Z,19.33
2023-05-22T00:05:22.617Z,22.30
2023-05-22T00:07:51.195Z,23.17
2023-05-22T00:10:19.496Z,20.45
2023-05-22T00:12:47.770Z,20.52
2023-05-22T00:15:16.124Z,19.20
2023-05-22T00:17:44.557Z,20.80
2023-05-22T00:20:13.517Z,20.42
2023-05-22T00:22:43.159Z,22.75
2023-05-22T00:25:12.371Z,26.10
2023-05-22T00:27:40.656Z,20.48
2023-05-22T00:30:09.854Z,25.45
2023-05-22T00:32:38.265Z,21.85
2023-05-22T00:35:07.685Z,24.42
2023-05-22T00:37:35.906Z,24.67
2023-05-22T00:40:06.746Z,28.83
2023-05-22T00:42:35.062Z,24.03
2023-05-22T00:45:03.327Z,29.35
2023-05-22T00:47:32.371Z,28.88
2023-05-22T00:50:01.844Z,31.43
2023-05-22T00:52:30.410Z,38.83
2023-05-22T00:54:59.715Z,41.08
2023-05-22T00:57:29.360Z,31.48
2023-05-22T00:59:57.707Z,36.72
2023-05-22T01:02:28.178Z,36.85
2023-05-22T01:04:58.136Z,30.02
2023-05-22T01:07:26.593Z,35.47
2023-05-22T01:09:56.254Z,38.38
2023-05-22T01:12:32.275Z,37.13
2023-05-22T01:15:11.782Z,42.33
2023-05-22T01:17:46.337Z,43.63
2023-05-22T01:20:22.482Z,40.63
2023-05-22T01:23:16.233Z,40.63
2023-05-22T01:26:03.916Z,44.87
2023-05-22T01:28:43.734Z,52.13
2023-05-22T01:31:16.978Z,43.27
2023-05-22T01:33:50.075Z,43.40
2023-05-22T01:36:22.554Z,50.00
2023-05-22T01:38:52.106Z,39.83
2023-05-22T01:41:21.360Z,42.47
2023-05-22T01:43:49.883Z,41.47
2023-05-22T01:46:19.669Z,52.42
2023-05-22T01:48:49.348Z,45.22
2023-05-22T01:51:24.988Z,49.00
2023-05-22T01:53:58.462Z,46.70
2023-05-22T01:56:35.338Z,57.70
2023-05-22T01:59:11.665Z,50.70
2023-05-22T02:01:42.711Z,52.90
2023-05-22T02:04:11.586Z,46.22
2023-05-22T02:06:40.734Z,43.20
2023-05-22T02:09:09.974Z,46.33
2023-05-22T02:11:41.378Z,46.72
2023-05-22T02:14:13.696Z,40.60
2023-05-22T02:16:46.896Z,43.90
2023-05-22T02:19:15.726Z,47.75
2023-05-22T02:21:44.637Z,44.20
2023-05-22T02:24:12.893Z,47.30
2023-05-22T02:26:43.489Z,42.60
2023-05-22T02:29:12.980Z,39.50
2023-05-22T02:31:41.405Z,43.80
2023-05-22T02:34:11.162Z,40.97
2023-05-22T02:36:39.836Z,39.97
2023-05-22T02:39:11.824Z,37.50
2023-05-22T02:41:40.614Z,44.03
2023-05-22T02:44:09.204Z,44.15
2023-05-22T02:46:37.582Z,43.17
2023-05-22T02:49:05.923Z,42.25
2023-05-22T02:51:35.830Z,42.17
2023-05-22T02:54:04.358Z,46.60
2023-05-22T02:56:32.736Z,39.00
2023-05-22T02:59:00.984Z,41.58
2023-05-22T03:01:30.629Z,38.90
2023-05-22T03:03:59.105Z,38.63
2023-05-22T03:06:27.352Z,46.88
2023-05-22T03:08:57.165Z,35.85
2023-05-22T03:11:25.708Z,36.22
2023-05-22T03:13:54.199Z,39.75
2023-05-22T03:16:22.503Z,47.15
2023-05-22T03:18:53.503Z,48.95
2023-05-22T03:21:21.904Z,51.13
2023-05-22T03:23:50.136Z,48.70
2023-05-22T03:26:19.724Z,63.85
2023-05-22T03:28:48.267Z,60.88
2023-05-22T03:31:17.901Z,58.05
2023-05-22T03:33:59.735Z,71.78
2023-05-22T03:36:28.716Z,70.82
2023-05-22T03:38:57.834Z,66.30
2023-05-22T03:41:27.482Z,57.75
2023-05-22T03:43:57.322Z,63.17
2023-05-22T03:46:26.574Z,65.35
2023-05-22T03:48:55.001Z,63.53
2023-05-22T03:51:23.241Z,64.25
2023-05-22T03:53:51.512Z,68.38
2023-05-22T03:56:19.982Z,68.22
2023-05-22T03:58:51.408Z,65.45
2023-05-22T04:01:19.886Z,66.38
2023-05-22T04:03:48.144Z,63.85
2023-05-22T04:06:16.456Z,64.78
2023-05-22T04:08:44.889Z,65.25
2023-05-22T04:11:15.719Z,73.68
2023-05-22T04:13:44.015Z,65.85
2023-05-22T04:16:13.805Z,61.63
2023-05-22T04:18:42.036Z,56.25
2023-05-22T04:21:10.473Z,64.78
2023-05-22T04:23:43.300Z,63.55
2023-05-22T04:26:11.786Z,59.35
2023-05-22T04:28:40.450Z,60.42
2023-05-22T04:31:08.802Z,60.58
2023-05-22T04:33:40.097Z,64.88
2023-05-22T04:36:12.292Z,68.15
2023-05-22T04:38:41.494Z,69.93
2023-05-22T04:41:13.512Z,68.75
2023-05-22T04:43:41.855Z,77.90
2023-05-22T04:46:10.220Z,71.90
2023-05-22T04:48:40.520Z,70.32
2023-05-22T04:51:09.654Z,72.10
2023-05-22T04:53:38.762Z,70.45
2023-05-22T04:56:08.099Z,71.47
2023-05-22T04:58:37.923Z,74.13
2023-05-22T05:01:07.419Z,64.80
2023-05-22T05:03:35.916Z,75.90
2023-05-22T05:06:06.027Z,65.28
2023-05-22T05:08:34.345Z,69.85
2023-05-22T05:11:02.606Z,67.38
2023-05-22T05:13:30.964Z,68.20
2023-05-22T05:16:00.776Z,77.32
2023-05-22T05:18:29.309Z,71.60
2023-05-22T05:20:57.766Z,59.50
2023-05-22T05:23:27.394Z,71.35
2023-05-22T05:25:56.934Z,64.30
2023-05-22T05:28:26.512Z,64.93
2023-05-22T05:30:55.922Z,63.65
2023-05-22T05:33:56.696Z,64.90
2023-05-22T05:36:36.762Z,64.32
2023-05-22T05:39:06.745Z,74.30
2023-05-22T05:41:36.645Z,69.95
2023-05-22T05:44:09.962Z,65.88
2023-05-22T05:46:39.300Z,62.63
2023-05-22T05:49:10.191Z,61.80
2023-05-22T05:51:39.960Z,67.38
2023-05-22T05:54:10.991Z,62.30
2023-05-22T05:56:39.915Z,57.15
2023-05-22T05:59:08.272Z,59.55
2023-05-22T06:01:39.898Z,56.95
2023-05-22T06:04:14.222Z,60.88
2023-05-22T06:06:44.405Z,52.15
2023-05-22T06:09:14.186Z,59.72
2023-05-22T06:12:01.530Z,57.70
2023-05-22T06:14:30.717Z,57.70
2023-05-22T06:16:59.133Z,51.55
2023-05-22T06:19:28.332Z,55.13
2023-05-22T06:21:57.069Z,44.17
2023-05-22T06:24:27.490Z,57.25
2023-05-22T06:26:55.956Z,51.05
2023-05-22T06:29:24.280Z,48.75
2023-05-22T06:31:54.536Z,54.15
2023-05-22T06:34:23.835Z,49.38
2023-05-22T06:36:52.843Z,47.83
2023-05-22T06:39:27.159Z,60.22
2023-05-22T06:41:58.258Z,52.42
2023-05-22T06:44:26.816Z,53.58
2023-05-22T06:46:57.370Z,53.97
2023-05-22T06:49:27.203Z,62.40
2023-05-22T06:51:57.142Z,55.45
2023-05-22T06:54:28.677Z,51.65
2023-05-22T06:57:00.507Z,53.65
2023-05-22T06:59:29.539Z,53.70
2023-05-22T07:02:00.871Z,50.92
2023-05-22T07:04:59.338Z,51.30
2023-05-22T07:07:35.384Z,47.30
2023-05-22T07:10:04.316Z,52.63
2023-05-22T07:12:34.260Z,49.80
2023-05-22T07:15:02.565Z,47.63
2023-05-22T07:17:33.069Z,49.92
2023-05-22T07:20:01.393Z,39.47
2023-05-22T07:22:31.185Z,46.65
2023-05-22T07:24:59.600Z,46.38
2023-05-22T07:27:33.971Z,40.95
2023-05-22T07:30:04.001Z,40.42
2023-05-22T07:32:33.605Z,40.83
2023-05-22T07:35:04.832Z,48.92
2023-05-22T07:37:33.584Z,51.72
2023-05-22T07:40:02.154Z,44.80
2023-05-22T07:42:32.040Z,45.42
2023-05-22T07:45:02.491Z,37.50
2023-05-22T07:47:30.893Z,42.33
2023-05-22T07:49:59.197Z,39.47
2023-05-22T07:52:27.601Z,44.90
2023-05-22T07:54:56.114Z,39.88
2023-05-22T07:57:26.596Z,45.70
2023-05-22T07:59:59.302Z,45.40
2023-05-22T08:02:29.000Z,41.15
2023-05-22T08:04:57.432Z,42.20
2023-05-22T08:07:25.852Z,39.45
2023-05-22T08:09:54.164Z,43.67
2023-05-22T08:12:22.432Z,44.10
2023-05-22T08:14:50.702Z,43.05
2023-05-22T08:17:19.152Z,44.20
2023-05-22T08:19:48.963Z,40.92
2023-05-22T08:22:17.801Z,39.08
2023-05-22T08:24:46.042Z,50.97
2023-05-22T08:27:14.271Z,45.30
2023-05-22T08:29:42.566Z,46.17
2023-05-22T08:32:10.822Z,46.22
2023-05-22T08:34:40.304Z,44.67
2023-05-22T08:37:10.661Z,51.80
2023-05-22T08:39:38.892Z,45.92
2023-05-22T08:42:07.585Z,49.15
2023-05-22T08:44:36.029Z,49.13
2023-05-22T08:47:09.951Z,44.95
2023-05-22T08:49:40.149Z,42.13
2023-05-22T08:52:14.519Z,44.85
2023-05-22T08:54:54.061Z,43.83
2023-05-22T08:57:23.145Z,39.30
2023-05-22T08:59:51.880Z,41.42
2023-05-22T09:02:21.175Z,44.03
2023-05-22T09:04:49.389Z,39.72
2023-05-22T09:07:22.139Z,33.97
2023-05-22T09:09:50.873Z,36.53
2023-05-22T09:12:19.147Z,35.55
2023-05-22T09:14:47.409Z,36.65
2023-05-22T09:17:17.114Z,40.60
2023-05-22T09:19:46.385Z,45.85
2023-05-22T09:22:16.763Z,41.13
2023-05-22T09:24:47.075Z,36.95
2023-05-22T09:27:15.501Z,43.15
2023-05-22T09:29:50.804Z,38.10
2023-05-22T09:32:20.992Z,40.15
2023-05-22T09:34:49.496Z,46.75
2023-05-22T09:37:19.234Z,40.75
2023-05-22T09:39:51.507Z,40.63
2023-05-22T09:42:19.977Z,39.17
2023-05-22T09:44:50.158Z,42.38
2023-05-22T09:47:18.449Z,45.90
2023-05-22T09:49:47.175Z,35.42
2023-05-22T09:52:16.576Z,36.45
2023-05-22T09:54:51.054Z,39.75
2023-05-22T09:57:20.711Z,33.85
2023-05-22T09:59:54.270Z,40.95
2023-05-22T10:02:24.141Z,38.45
2023-05-22T10:04:53.423Z,40.85
2023-05-22T10:07:24.128Z,41.50
2023-05-22T10:09:58.099Z,38.83
2023-05-22T10:12:29.825Z,41.08
2023-05-22T10:14:58.591Z,40.75
2023-05-22T10:17:27.740Z,37.40
2023-05-22T10:19:57.449Z,39.58
2023-05-22T10:22:28.741Z,38.65
2023-05-22T10:24:59.800Z,35.08
2023-05-22T10:27:28.101Z,35.22
2023-05-22T10:30:00.870Z,38.28
2023-05-22T10:32:36.931Z,29.27
2023-05-22T10:35:19.363Z,37.28
2023-05-22T10:37:52.182Z,31.92
2023-05-22T10:40:29.007Z,34.17
2023-05-22T10:43:00.992Z,36.78
2023-05-22T10:45:30.112Z,31.50
2023-05-22T10:48:05.612Z,39.95
2023-05-22T10:50:34.875Z,32.38
2023-05-22T10:53:23.522Z,30.52
2023-05-22T10:55:54.422Z,33.83
2023-05-22T10:58:27.833Z,36.08
2023-05-22T11:01:15.956Z,31.75
2023-05-22T11:03:54.497Z,30.15
2023-05-22T11:06:36.376Z,30.20
2023-05-22T11:09:21.829Z,26.48
2023-05-22T11:12:18.271Z,28.92
2023-05-22T11:14:54.097Z,30.42
2023-05-22T11:17:24.308Z,29.42
2023-05-22T11:20:00.585Z,28.45
2023-05-22T11:22:33.438Z,30.15
2023-05-22T11:25:06.185Z,26.92
2023-05-22T11:27:36.490Z,31.52
2023-05-22T11:30:06.700Z,26.95
2023-05-22T11:32:37.235Z,29.55
2023-05-22T11:35:08.375Z,28.50
2023-05-22T11:37:40.086Z,24.30
2023-05-22T11:40:09.642Z,28.33
2023-05-22T11:42:39.419Z,23.90
2023-05-22T11:45:08.604Z,27.30
2023-05-22T11:47:37.437Z,28.23
2023-05-22T11:50:07.208Z,31.92
2023-05-22T11:52:37.108Z,23.17
2023-05-22T11:55:06.474Z,29.70
2023-05-22T11:57:35.424Z,29.48
2023-05-22T12:00:06.613Z,31.10
2023-05-22T12:02:46.022Z,25.67
2023-05-22T12:05:15.931Z,26.50
2023-05-22T12:07:44.642Z,29.80
2023-05-22T12:10:14.865Z,29.52
2023-05-22T12:12:44.512Z,28.88
2023-05-22T12:15:15.276Z,32.33
2023-05-22T12:17:44.255Z,27.42
2023-05-22T12:20:14.552Z,26.85
2023-05-22T12:22:44.116Z,25.90
2023-05-22T12:25:17.210Z,27.30
2023-05-22T12:27:46.293Z,26.08
2023-05-22T12:30:16.959Z,33.90
2023-05-22T12:32:49.735Z,30.02
2023-05-22T12:35:18.350Z,25.90
2023-05-22T12:37:50.703Z,32.92
2023-05-22T12:40:19.320Z,26.27
2023-05-22T12:42:48.809Z,29.00
2023-05-22T12:45:18.877Z,23.73
2023-05-22T12:47:47.368Z,27.50
2023-05-22T12:50:15.773Z,30.20
2023-05-22T12:52:44.029Z,26.75
2023-05-22T12:55:12.751Z,29.05
2023-05-22T12:57:41.005Z,24.63
2023-05-22T13:00:10.141Z,28.00
2023-05-22T13:02:39.909Z,26.92
2023-05-22T13:05:08.950Z,24.02
2023-05-22T13:07:37.918Z,29.45
2023-05-22T13:10:06.959Z,29.40
2023-05-22T13:12:35.298Z,32.40
2023-05-22T13:15:03.682Z,33.30
2023-05-22T13:17:33.985Z,30.67
2023-05-22T13:20:04.459Z,33.97
2023-05-22T13:22:32.779Z,33.85
2023-05-22T13:25:01.124Z,35.08
2023-05-22T13:27:31.940Z,33.30
2023-05-22T13:30:02.048Z,34.95
2023-05-22T13:32:30.722Z,32.35
2023-05-22T13:34:58.961Z,31.58
2023-05-22T13:37:28.619Z,31.77
2023-05-22T13:39:56.913Z,40.00
2023-05-22T13:42:25.281Z,32.65
2023-05-22T13:44:53.588Z,32.05
2023-05-22T13:47:23.002Z,30.10
2023-05-22T13:49:51.762Z,29.42
2023-05-22T13:52:20.116Z,30.63
2023-05-22T13:54:50.264Z,29.67
2023-05-22T13:57:18.632Z,33.05
2023-05-22T13:59:46.949Z,35.10
2023-05-22T14:02:15.428Z,32.47
2023-05-22T14:04:43.818Z,36.53
2023-05-22T14:07:12.122Z,36.40
2023-05-22T14:09:40.417Z,31.98
2023-05-22T14:12:10.171Z,32.10
2023-05-22T14:14:38.484Z,33.53
2023-05-22T14:17:08.264Z,37.83
2023-05-22T14:19:36.851Z,32.63
2023-05-22T14:22:05.546Z,28.63
2023-05-22T14:24:33.864Z,39.28
2023-05-22T14:27:02.130Z,37.05
2023-05-22T14:29:32.515Z,35.28
2023-05-22T14:32:04.976Z,37.13
2023-05-22T14:34:33.373Z,34.80
2023-05-22T14:37:01.683Z,39.72
2023-05-22T14:39:30.050Z,34.75
2023-05-22T14:41:58.605Z,38.55
2023-05-22T14:44:26.943Z,37.55
2023-05-22T14:46:56.567Z,39.03
2023-05-22T14:49:24.954Z,43.65
2023-05-22T14:51:53.298Z,37.17
2023-05-22T14:54:23.693Z,45.10
2023-05-22T14:56:51.993Z,37.92
2023-05-22T14:59:20.216Z,38.38
2023-05-22T15:01:50.493Z,39.40
2023-05-22T15:04:20.772Z,43.65
2023-05-22T15:06:49.388Z,35.15
2023-05-22T15:09:17.653Z,34.33
2023-05-22T15:11:49.125Z,39.55
2023-05-22T15:14:17.615Z,39.33
2023-05-22T15:16:46.989Z,40.72
2023-05-22T15:19:15.334Z,33.45
2023-05-22T15:21:45.048Z,38.72
2023-05-22T15:24:13.353Z,35.05
2023-05-22T15:26:41.592Z,35.92
2023-05-22T15:29:09.909Z,35.10
2023-05-22T15:31:38.558Z,34.28
2023-05-22T15:34:06.871Z,35.58
2023-05-22T15:36:37.140Z,34.00
2023-05-22T15:39:07.245Z,35.05
2023-05-22T15:41:35.508Z,44.78
2023-05-22T15:44:03.731Z,38.40
2023-05-22T15:46:32.338Z,39.95
2023-05-22T15:49:00.626Z,39.38
2023-05-22T15:51:28.867Z,37.92
2023-05-22T15:53:58.024Z,36.67
2023-05-22T15:56:27.744Z,44.92
2023-05-22T15:58:56.236Z,42.90
2023-05-22T16:01:25.207Z,33.45
2023-05-22T16:03:53.653Z,35.33
2023-05-22T16:06:23.296Z,39.13
2023-05-22T16:08:51.544Z,40.92
2023-05-22T16:11:19.847Z,32.03
2023-05-22T16:13:50.155Z,38.78
2023-05-22T16:16:18.493Z,41.85
2023-05-22T16:18:49.844Z,36.92
2023-05-22T16:21:18.131Z,35.97
2023-05-22T16:23:46.402Z,31.42
2023-05-22T16:26:17.934Z,42.60
2023-05-22T16:28:46.327Z,36.03
2023-05-22T16:31:19.270Z,37.20
2023-05-22T16:33:47.791Z,33.70
2023-05-22T16:36:16.076Z,29.25
2023-05-22T16:38:44.424Z,33.53
2023-05-22T16:41:12.781Z,38.28
2023-05-22T16:43:41.051Z,29.63
2023-05-22T16:46:09.274Z,31.13
2023-05-22T16:48:39.005Z,30.23
2023-05-22T16:51:07.424Z,28.52
2023-05-22T16:53:37.396Z,29.25
2023-05-22T16:56:06.993Z,25.00
2023-05-22T16:58:35.634Z,29.30
2023-05-22T17:01:06.319Z,23.38
2023-05-22T17:03:35.482Z,30.02
2023-05-22T17:06:05.889Z,26.45
2023-05-22T17:08:34.151Z,27.98
2023-05-22T17:11:02.465Z,26.63
2023-05-22T17:13:31.033Z,28.83
2023-05-22T17:15:59.439Z,21.67
2023-05-22T17:18:27.780Z,24.55
2023-05-22T17:20:56.070Z,19.33
2023-05-22T17:23:25.930Z,17.20
2023-05-22T17:26:07.824Z,19.17
2023-05-22T17:28:36.418Z,19.38
2023-05-22T17:31:04.654Z,19.50
2023-05-22T17:33:33.514Z,22.38
2023-05-22T17:36:01.885Z,18.42
2023-05-22T17:38:31.543Z,18.55
2023-05-22T17:41:00.842Z,19.88
2023-05-22T17:43:29.444Z,15.45
2023-05-22T17:45:58.450Z,16.23
2023-05-22T17:48:27.199Z,17.52
2023-05-22T17:50:55.912Z,15.57
2023-05-22T17:53:24.206Z,15.30
2023-05-22T17:55:54.047Z,14.50
2023-05-22T17:58:22.570Z,17.17
2023-05-22T18:00:50.935Z,16.00
2023-05-22T18:03:20.834Z,15.88
2023-05-22T18:05:49.471Z,15.65
2023-05-22T18:08:17.906Z,13.57
2023-05-22T18:10:46.158Z,14.98
2023-05-22T18:13:16.088Z,17.75
2023-05-22T18:15:44.454Z,19.63
2023-05-22T18:18:13.192Z,16.45
2023-05-22T18:20:41.759Z,18.35
2023-05-22T18:23:10.304Z,16.83
2023-05-22T18:25:38.576Z,20.60
2023-05-22T18:28:08.247Z,16.10
2023-05-22T18:30:38.184Z,20.92
2023-05-22T18:33:06.813Z,17.70
2023-05-22T18:35:35.069Z,23.17
2023-05-22T18:38:03.695Z,21.67
2023-05-22T18:40:32.099Z,22.95
2023-05-22T18:43:03.022Z,21.08
2023-05-22T18:45:31.337Z,18.70
2023-05-22T18:48:01.042Z,18.65
2023-05-22T18:50:29.573Z,23.67
2023-05-22T18:52:57.910Z,21.80
2023-05-22T18:55:26.375Z,23.77
2023-05-22T18:57:54.733Z,18.15
2023-05-22T19:00:23.110Z,26.20
2023-05-22T19:02:51.464Z,24.20
2023-05-22T19:05:21.468Z,29.10
2023-05-22T19:07:49.934Z,23.35
2023-05-22T19:10:18.269Z,28.42
2023-05-22T19:12:46.513Z,24.65
2023-05-22T19:15:14.871Z,23.95
2023-05-22T19:17:43.274Z,28.33
2023-05-22T19:20:12.332Z,28.90
2023-05-22T19:22:42.157Z,25.60
2023-05-22T19:25:11.109Z,30.63
2023-05-22T19:27:39.612Z,31.70
2023-05-22T19:30:09.097Z,28.42
2023-05-22T19:32:37.569Z,26.73
2023-05-22T19:35:06.661Z,32.13
2023-05-22T19:37:34.973Z,30.10
2023-05-22T19:40:06.246Z,32.80
2023-05-22T19:42:34.743Z,31.23
2023-05-22T19:45:03.488Z,22.38
2023-05-22T19:47:32.265Z,28.98
2023-05-22T19:50:00.597Z,33.38
2023-05-22T19:52:29.030Z,35.03
2023-05-22T19:54:57.421Z,36.63
2023-05-22T19:57:27.199Z,31.35
2023-05-22T19:59:55.724Z,31.73
2023-05-22T20:02:24.136Z,37.65
2023-05-22T20:04:55.027Z,32.53
2023-05-22T20:07:23.414Z,33.55
2023-05-22T20:09:51.782Z,34.05
2023-05-22T20:12:20.071Z,36.55
2023-05-22T20:14:49.974Z,33.30
2023-05-22T20:17:22.386Z,39.75
2023-05-22T20:19:50.932Z,37.75
2023-05-22T20:22:19.248Z,41.25
2023-05-22T20:24:48.315Z,36.42
2023-05-22T20:27:16.827Z,36.10
2023-05-22T20:29:45.262Z,40.25
2023-05-22T20:32:14.960Z,34.60
2023-05-22T20:34:45.168Z,36.55
2023-05-22T20:37:13.842Z,36.83
2023-05-22T20:39:42.795Z,37.03
2023-05-22T20:42:13.044Z,38.85
2023-05-22T20:44:42.013Z,42.67
2023-05-22T20:47:10.866Z,42.55
2023-05-22T20:49:41.266Z,40.50
2023-05-22T20:52:10.186Z,43.60
2023-05-22T20:54:38.432Z,55.08
2023-05-22T20:57:07.060Z,39.63
2023-05-22T20:59:37.478Z,48.55
2023-05-22T21:02:06.078Z,42.50
2023-05-22T21:04:34.315Z,44.53
2023-05-22T21:07:04.937Z,41.60
2023-05-22T21:09:33.262Z,43.53
2023-05-22T21:12:01.546Z,45.50
2023-05-22T21:14:29.790Z,47.33
2023-05-22T21:16:58.077Z,37.57
2023-05-22T21:19:26.783Z,38.75
2023-05-22T21:21:55.066Z,41.03
2023-05-22T21:24:24.651Z,41.88
2023-05-22T21:26:52.928Z,40.90
2023-05-22T21:29:21.219Z,37.87
2023-05-22T21:31:49.579Z,46.65
2023-05-22T21:34:17.895Z,45.57
2023-05-22T21:36:46.123Z,40.53
2023-05-22T21:39:14.514Z,40.90
2023-05-22T21:41:44.134Z,37.80
2023-05-22T21:44:12.374Z,39.57
2023-05-22T21:46:40.659Z,41.40
2023-05-22T21:49:09.747Z,48.00
2023-05-22T21:51:38.417Z,46.33
2023-05-22T21:54:06.837Z,47.27
2023-05-22T21:56:35.063Z,48.20
2023-05-22T21:59:05.889Z,54.23
2023-05-22T22:01:34.354Z,48.47
2023-05-22T22:04:02.689Z,45.57
2023-05-22T22:06:31.318Z,47.93
2023-05-22T22:09:00.664Z,54.83
2023-05-22T22:11:28.966Z,52.23
2023-05-22T22:13:57.251Z,54.13
2023-05-22T22:16:28.039Z,48.10
2023-05-22T22:18:58.121Z,47.53
2023-05-22T22:21:26.492Z,49.20
2023-05-22T22:23:54.822Z,47.23
2023-05-22T22:26:23.071Z,43.30
2023-05-22T22:28:51.379Z,46.53
2023-05-22T22:31:19.649Z,45.00
2023-05-22T22:33:49.275Z,44.13
2023-05-22T22:36:17.760Z,41.23
2023-05-22T22:38:46.021Z,39.87
2023-05-22T22:41:14.243Z,39.70
2023-05-22T22:43:42.498Z,38.13
2023-05-22T22:46:10.792Z,44.90
2023-05-22T22:48:41.702Z,53.83
2023-05-22T22:51:11.595Z,51.87
2023-05-22T22:53:40.214Z,54.67
2023-05-22T22:56:08.643Z,60.20
2023-05-22T22:58:36.938Z,49.93
2023-05-22T23:01:05.573Z,59.00
2023-05-22T23:03:35.461Z,60.10
2023-05-22T23:06:03.968Z,59.97
2023-05-22T23:08:33.620Z,58.23
2023-05-22T23:11:01.870Z,60.27
2023-05-22T23:13:30.153Z,59.23
2023-05-22T23:15:58.470Z,59.13
2023-05-22T23:18:26.729Z,56.87
2023-05-22T23:20:54.989Z,62.17
2023-05-22T23:23:23.272Z,59.67
2023-05-22T23:25:53.058Z,56.43
2023-05-22T23:28:21.318Z,47.90
2023-05-22T23:30:49.630Z,46.20
2023-05-22T23:33:17.855Z,52.40
2023-05-22T23:35:46.142Z,43.97
2023-05-22T23:38:14.474Z,45.93
2023-05-22T23:40:42.698Z,45.70
2023-05-22T23:43:12.297Z,48.17
2023-05-22T23:45:40.789Z,45.80
2023-05-22T23:48:09.201Z,45.03
2023-05-22T23:50:37.583Z,41.55
2023-05-22T23:53:05.897Z,43.15
2023-05-22T23:55:34.154Z,40.17
2023-05-22T23:58:02.387Z,44.15
